createdAt,value
2019-04-03T00:00:14.477Z,21.7
2019-04-03T00:01:07.008Z,21.7
2019-04-03T00:01:54.381Z,21.7
2019-04-03T00:02:43.681Z,21.6
2019-04-03T00:03:37.031Z,21.6
2019-04-03T00:04:23.328Z,21.6
2019-04-03T00:05:14.265Z,21.6
2019-04-03T00:06:07.596Z,21.6
2019-04-03T00:06:53.468Z,21.6
2019-04-03T00:07:44.964Z,21.6
2019-04-03T00:08:49.098Z,21.6
2019-04-03T00:09:23.604Z,21.6
2019-04-03T00:10:15.136Z,21.6
2019-04-03T00:11:08.255Z,21.6
2019-04-03T00:11:54.360Z,21.6
2019-04-03T00:12:48.790Z,21.6
2019-04-03T00:13:35.391Z,21.5
2019-04-03T00:14:24.975Z,21.5
2019-04-03T00:15:17.771Z,21.5
2019-04-03T00:16:05.160Z,21.5
2019-04-03T00:16:55.620Z,21.4
2019-04-03T00:17:48.819Z,21.4
2019-04-03T00:18:35.407Z,21.4
2019-04-03T00:19:25.143Z,21.4
2019-04-03T00:20:14.334Z,21.4
2019-04-03T00:21:05.562Z,21.4
2019-04-03T00:21:58.170Z,21.4
2019-04-03T00:22:53.199Z,21.4
2019-04-03T00:23:35.725Z,21.5
2019-04-03T00:24:29.124Z,21.6
2019-04-03T00:25:15.520Z,21.6
2019-04-03T00:26:06.544Z,21.6
2019-04-03T00:26:59.245Z,21.7
2019-04-03T00:27:45.759Z,21.8
2019-04-03T00:28:35.873Z,21.8
2019-04-03T00:29:29.427Z,21.9
2019-04-03T00:30:16.806Z,21.9
2019-04-03T00:31:07.042Z,22
2019-04-03T00:31:59.896Z,22
2019-04-03T00:32:46.541Z,22.1
2019-04-03T00:33:36.034Z,22.1
2019-04-03T00:34:29.326Z,22.1
2019-04-03T00:35:16.351Z,22.1
2019-04-03T00:36:07.171Z,22
2019-04-03T00:37:00.154Z,22
2019-04-03T00:37:47.056Z,22
2019-04-03T00:38:37.068Z,22
2019-04-03T00:39:29.763Z,21.9
2019-04-03T00:40:17.586Z,21.9
2019-04-03T00:41:07.201Z,21.9
2019-04-03T00:41:59.676Z,21.9
2019-04-03T00:42:47.175Z,21.9
2019-04-03T00:43:37.417Z,21.9
2019-04-03T00:44:30.411Z,21.9
2019-04-03T00:45:17.355Z,21.9
2019-04-03T00:46:06.970Z,21.8
2019-04-03T00:47:00.640Z,21.8
2019-04-03T00:47:47.150Z,21.8
2019-04-03T00:48:38.066Z,21.8
2019-04-03T00:49:30.975Z,21.8
2019-04-03T00:50:18.076Z,21.8
2019-04-03T00:51:08.715Z,21.8
2019-04-03T00:52:00.747Z,21.8
2019-04-03T00:52:48.621Z,21.8
2019-04-03T00:53:37.895Z,21.8
2019-04-03T00:54:34.849Z,21.7
2019-04-03T00:55:18.800Z,21.7
2019-04-03T00:56:08.335Z,21.7
2019-04-03T00:57:01.569Z,21.7
2019-04-03T00:57:49.212Z,21.6
2019-04-03T00:58:38.818Z,21.6
2019-04-03T00:59:31.841Z,21.6
2019-04-03T01:00:18.082Z,21.6
2019-04-03T01:01:08.584Z,21.6
2019-04-03T01:02:01.504Z,21.6
2019-04-03T01:02:48.352Z,21.6
2019-04-03T01:03:38.744Z,21.6
2019-04-03T01:04:31.824Z,21.5
2019-04-03T01:05:19.496Z,21.5
2019-04-03T01:06:08.715Z,21.5
2019-04-03T01:07:01.884Z,21.5
2019-04-03T01:07:50.061Z,21.5
2019-04-03T01:08:38.722Z,21.5
2019-04-03T01:09:32.532Z,21.5
2019-04-03T01:10:19.260Z,21.5
2019-04-03T01:11:09.055Z,21.5
2019-04-03T01:12:02.175Z,21.4
2019-04-03T01:12:49.408Z,21.4
2019-04-03T01:13:39.812Z,21.4
2019-04-03T01:14:33.251Z,21.4
2019-04-03T01:15:19.884Z,21.4
2019-04-03T01:16:10.249Z,21.4
2019-04-03T01:17:00.240Z,21.4
2019-04-03T01:17:49.860Z,21.4
2019-04-03T01:18:41.961Z,21.4
2019-04-03T01:19:30.326Z,21.4
2019-04-03T01:20:18.988Z,21.4
2019-04-03T01:21:13.003Z,21.5
2019-04-03T01:21:59.316Z,21.6
2019-04-03T01:22:49.504Z,21.6
2019-04-03T01:23:43.107Z,21.7
2019-04-03T01:24:30.319Z,21.8
2019-04-03T01:25:19.420Z,21.8
2019-04-03T01:26:14.004Z,21.8
2019-04-03T01:27:00.868Z,21.9
2019-04-03T01:27:51.124Z,22
2019-04-03T01:28:44.264Z,22.1
2019-04-03T01:29:30.475Z,22.1
2019-04-03T01:30:22.089Z,22.1
2019-04-03T01:31:10.561Z,22.1
2019-04-03T01:32:00.618Z,22.1
2019-04-03T01:32:54.145Z,22
2019-04-03T01:33:41.370Z,22
2019-04-03T01:34:30.895Z,22
2019-04-03T01:35:24.273Z,21.9
2019-04-03T01:36:11.057Z,21.9
2019-04-03T01:37:00.910Z,21.9
2019-04-03T01:37:53.835Z,21.9
2019-04-03T01:38:42.077Z,21.9
2019-04-03T01:39:30.659Z,21.9
2019-04-03T01:40:24.422Z,21.8
2019-04-03T01:41:11.613Z,21.8
2019-04-03T01:42:01.462Z,21.8
2019-04-03T01:42:55.021Z,21.8
2019-04-03T01:43:40.790Z,21.8
2019-04-03T01:44:32.929Z,21.8
2019-04-03T01:45:21.753Z,21.8
2019-04-03T01:46:11.940Z,21.8
2019-04-03T01:47:04.490Z,21.8
2019-04-03T01:47:51.028Z,21.8
2019-04-03T01:48:41.740Z,21.7
2019-04-03T01:49:35.497Z,21.7
2019-04-03T01:50:22.126Z,21.7
2019-04-03T01:51:11.387Z,21.7
2019-04-03T01:52:05.970Z,21.7
2019-04-03T01:52:51.662Z,21.6
2019-04-03T01:53:42.375Z,21.6
2019-04-03T01:54:35.861Z,21.6
2019-04-03T01:55:22.083Z,21.6
2019-04-03T01:56:13.182Z,21.6
2019-04-03T01:57:05.956Z,21.6
2019-04-03T01:57:52.444Z,21.6
2019-04-03T01:58:43.399Z,21.6
2019-04-03T01:59:33.397Z,21.6
2019-04-03T02:00:22.400Z,21.6
2019-04-03T02:01:15.404Z,21.6
2019-04-03T02:02:03.063Z,21.6
2019-04-03T02:02:53.121Z,21.5
2019-04-03T02:03:45.852Z,21.5
2019-04-03T02:04:33.329Z,21.5
2019-04-03T02:05:22.518Z,21.5
2019-04-03T02:06:16.458Z,21.4
2019-04-03T02:07:02.591Z,21.4
2019-04-03T02:07:53.377Z,21.4
2019-04-03T02:08:46.180Z,21.4
2019-04-03T02:09:32.901Z,21.4
2019-04-03T02:10:25.263Z,21.4
2019-04-03T02:11:13.418Z,21.4
2019-04-03T02:12:04.237Z,21.4
2019-04-03T02:12:57.351Z,21.4
2019-04-03T02:13:44.107Z,21.4
2019-04-03T02:14:33.708Z,21.4
2019-04-03T02:15:27.161Z,21.4
2019-04-03T02:16:13.791Z,21.4
2019-04-03T02:17:04.159Z,21.4
2019-04-03T02:17:56.951Z,21.5
2019-04-03T02:18:44.996Z,21.6
2019-04-03T02:19:35.163Z,21.6
2019-04-03T02:20:28.269Z,21.7
2019-04-03T02:21:14.399Z,21.8
2019-04-03T02:22:05.843Z,21.8
2019-04-03T02:22:54.117Z,21.8
2019-04-03T02:23:44.596Z,21.8
2019-04-03T02:24:38.270Z,21.8
2019-04-03T02:25:24.662Z,21.8
2019-04-03T02:26:14.801Z,21.8
2019-04-03T02:27:07.165Z,21.9
2019-04-03T02:27:53.934Z,21.9
2019-04-03T02:28:43.558Z,22
2019-04-03T02:29:34.268Z,22
2019-04-03T02:30:25.219Z,22.1
2019-04-03T02:31:21.180Z,22.1
2019-04-03T02:32:05.122Z,22.1
2019-04-03T02:33:01.090Z,22.1
2019-04-03T02:33:45.333Z,22.1
2019-04-03T02:34:41.234Z,22.1
2019-04-03T02:35:25.148Z,22.1
2019-04-03T02:36:20.388Z,22.1
2019-04-03T02:37:05.522Z,22.1
2019-04-03T02:37:57.744Z,22.1
2019-04-03T02:38:46.013Z,22.1
2019-04-03T02:39:35.292Z,22
2019-04-03T02:40:25.788Z,21.9
2019-04-03T02:41:15.103Z,21.9
2019-04-03T02:42:12.164Z,21.9
2019-04-03T02:42:56.092Z,21.9
2019-04-03T02:43:52.347Z,21.9
2019-04-03T02:44:36.285Z,21.9
2019-04-03T02:45:31.827Z,21.8
2019-04-03T02:46:17.013Z,21.8
2019-04-03T02:47:08.938Z,21.8
2019-04-03T02:47:57.682Z,21.8
2019-04-03T02:48:45.698Z,21.8
2019-04-03T02:49:35.620Z,21.8
2019-04-03T02:50:27.748Z,21.8
2019-04-03T02:51:21.117Z,21.8
2019-04-03T02:52:07.112Z,21.8
2019-04-03T02:53:02.980Z,21.8
2019-04-03T02:53:48.135Z,21.7
2019-04-03T02:54:42.710Z,21.7
2019-04-03T02:55:26.856Z,21.7
2019-04-03T02:56:21.054Z,21.7
2019-04-03T02:57:07.592Z,21.7
2019-04-03T02:58:13.777Z,21.6
2019-04-03T02:58:47.632Z,21.6
2019-04-03T02:59:37.809Z,21.6
2019-04-03T03:00:33.742Z,21.6
2019-04-03T03:01:18.584Z,21.6
2019-04-03T03:02:13.168Z,21.6
2019-04-03T03:02:57.561Z,21.6
2019-04-03T03:03:53.009Z,21.6
2019-04-03T03:07:18.690Z,21.4
2019-04-03T03:08:13.026Z,21.4
2019-04-03T03:08:58.854Z,21.4
2019-04-03T03:09:54.835Z,21.4
2019-04-03T03:10:38.814Z,21.4
2019-04-03T03:11:32.868Z,21.4
2019-04-03T03:12:17.990Z,21.4
2019-04-03T03:13:10.407Z,21.4
2019-04-03T03:13:59.163Z,21.3
2019-04-03T03:14:49.319Z,21.3
2019-04-03T03:15:44.990Z,21.2
2019-04-03T03:16:28.964Z,21.2
2019-04-03T03:24:04.857Z,21.2
2019-04-03T03:24:49.513Z,21.2
2019-04-03T03:25:40.637Z,21.2
2019-04-03T03:26:28.883Z,21.2
2019-04-03T03:27:19.444Z,21.2
2019-04-03T03:28:13.082Z,21.3
2019-04-03T03:29:27.635Z,21.3
2019-04-03T03:29:49.973Z,21.3
2019-04-03T03:31:17.244Z,21.3
2019-04-03T03:33:21.481Z,21.3
2019-04-03T03:34:08.999Z,21.3
2019-04-03T03:35:57.087Z,21.3
2019-04-03T03:36:35.765Z,21.3
2019-04-03T03:37:17.140Z,21.3
2019-04-03T03:37:53.053Z,21.3
2019-04-03T03:38:49.266Z,21.3
2019-04-03T03:39:34.357Z,21.3
2019-04-03T03:40:24.396Z,21.3
2019-04-03T03:41:14.279Z,21.3
2019-04-03T03:42:07.265Z,21.3
2019-04-03T03:42:54.684Z,21.3
2019-04-03T03:43:47.366Z,21.3
2019-04-03T03:44:35.975Z,21.3
2019-04-03T03:45:29.415Z,21.3
2019-04-03T03:46:14.915Z,21.3
2019-04-03T03:47:09.740Z,21.3
2019-04-03T03:47:55.142Z,21.3
2019-04-03T03:48:53.059Z,21.3
2019-04-03T03:49:35.686Z,21.2
2019-04-03T03:50:32.994Z,21.2
2019-04-03T03:51:14.818Z,21.2
2019-04-03T03:52:11.601Z,21.2
2019-04-03T03:52:54.585Z,21.2
2019-04-03T03:53:52.050Z,21.2
2019-04-03T03:54:35.884Z,21.2
2019-04-03T03:59:35.459Z,21.1
2019-04-03T04:00:30.791Z,21.1
2019-04-03T04:01:15.250Z,21.1
2019-04-03T04:02:12.440Z,21.1
2019-04-03T04:02:56.438Z,21.1
2019-04-03T04:03:50.417Z,21.1
2019-04-03T04:04:36.876Z,21.1
2019-04-03T04:05:30.973Z,21.1
2019-04-03T04:06:15.696Z,21
2019-04-03T04:07:11.494Z,21
2019-04-03T04:07:56.753Z,21
2019-04-03T04:08:52.098Z,21
2019-04-03T04:09:36.842Z,21
2019-04-03T04:10:37.708Z,21
2019-04-03T04:11:17.069Z,21
2019-04-03T04:12:12.482Z,21
2019-04-03T04:12:56.276Z,20.9
2019-04-03T04:13:52.891Z,20.9
2019-04-03T04:14:37.065Z,20.9
2019-04-03T04:15:32.717Z,20.9
2019-04-03T04:16:16.772Z,20.9
2019-04-03T04:17:21.393Z,20.9
2019-04-03T04:17:58.640Z,20.9
2019-04-03T04:18:47.684Z,20.9
2019-04-03T04:19:40.147Z,20.9
2019-04-03T04:20:27.850Z,20.9
2019-04-03T04:21:19.312Z,20.9
2019-04-03T04:22:08.146Z,20.9
2019-04-03T04:23:00.216Z,20.9
2019-04-03T04:23:47.042Z,20.9
2019-04-03T04:24:37.294Z,20.9
2019-04-03T04:25:31.416Z,20.9
2019-04-03T04:26:16.664Z,20.9
2019-04-03T04:27:10.234Z,20.9
2019-04-03T04:27:57.949Z,20.8
2019-04-03T04:28:48.256Z,20.8
2019-04-03T04:29:36.581Z,20.8
2019-04-03T04:30:27.303Z,20.8
2019-04-03T04:31:19.023Z,20.8
2019-04-03T04:32:08.337Z,20.8
2019-04-03T04:32:58.134Z,20.8
2019-04-03T04:33:50.801Z,20.8
2019-04-03T04:34:38.159Z,20.8
2019-04-03T04:35:30.029Z,20.8
2019-04-03T04:36:17.750Z,20.8
2019-04-03T04:37:10.083Z,20.8
2019-04-03T04:38:02.261Z,20.8
2019-04-03T04:38:47.666Z,20.8
2019-04-03T04:39:37.668Z,20.8
2019-04-03T04:40:28.935Z,20.8
2019-04-03T04:41:18.160Z,20.8
2019-04-03T04:42:12.245Z,20.8
2019-04-03T04:42:58.433Z,20.8
2019-04-03T04:43:49.087Z,20.8
2019-04-03T04:44:38.853Z,20.9
2019-04-03T04:45:28.590Z,20.9
2019-04-03T04:46:21.514Z,20.9
2019-04-03T04:47:08.742Z,20.9
2019-04-03T04:47:58.733Z,21
2019-04-03T04:48:47.621Z,21
2019-04-03T04:49:38.260Z,21.1
2019-04-03T04:50:32.258Z,21.1
2019-04-03T04:52:09.177Z,21.1
2019-04-03T04:54:38.198Z,21.1
2019-04-03T04:56:18.856Z,21.1
2019-04-03T04:57:11.911Z,21.1
2019-04-03T04:57:58.646Z,21
2019-04-03T04:58:50.895Z,21
2019-04-03T04:59:46.990Z,21
2019-04-03T05:00:32.157Z,21
2019-04-03T05:01:22.732Z,21.1
2019-04-03T05:02:09.933Z,21.1
2019-04-03T05:03:02.862Z,21.1
2019-04-03T05:03:49.756Z,21.1
2019-04-03T05:04:39.209Z,21.1
2019-04-03T05:05:36.404Z,21
2019-04-03T05:06:20.701Z,21
2019-04-03T05:07:10.885Z,21
2019-04-03T05:08:03.438Z,21
2019-04-03T05:08:50.270Z,21
2019-04-03T05:09:42.809Z,20.9
2019-04-03T05:10:29.832Z,20.9
2019-04-03T05:11:19.414Z,20.9
2019-04-03T05:12:14.242Z,20.9
2019-04-03T05:13:00.061Z,20.9
2019-04-03T05:13:53.433Z,20.9
2019-04-03T05:14:40.188Z,20.9
2019-04-03T05:15:32.075Z,20.9
2019-04-03T05:16:27.600Z,20.9
2019-04-03T05:17:09.956Z,20.9
2019-04-03T05:18:04.081Z,20.9
2019-04-03T05:18:50.490Z,20.9
2019-04-03T05:19:41.001Z,20.9
2019-04-03T05:20:31.889Z,20.9
2019-04-03T05:21:24.358Z,20.9
2019-04-03T05:22:11.076Z,20.9
2019-04-03T05:23:02.690Z,20.9
2019-04-03T05:23:50.982Z,20.9
2019-04-03T05:24:41.605Z,20.9
2019-04-03T05:25:35.023Z,20.9
2019-04-03T05:26:24.743Z,20.9
2019-04-03T05:27:14.819Z,20.9
2019-04-03T05:28:00.593Z,20.9
2019-04-03T05:29:06.893Z,20.9
2019-04-03T05:29:41.695Z,20.9
2019-04-03T05:30:31.145Z,20.9
2019-04-03T05:31:22.706Z,20.9
2019-04-03T05:32:16.460Z,20.9
2019-04-03T05:33:02.827Z,20.9
2019-04-03T05:33:51.493Z,20.9
2019-04-03T05:34:45.464Z,20.9
2019-04-03T05:35:32.163Z,20.9
2019-04-03T05:36:25.312Z,20.9
2019-04-03T05:37:20.863Z,20.9
2019-04-03T05:38:01.311Z,20.9
2019-04-03T05:38:57.233Z,20.9
2019-04-03T05:39:41.667Z,20.9
2019-04-03T05:40:33.307Z,21
2019-04-03T05:41:22.997Z,21
2019-04-03T05:42:12.812Z,21
2019-04-03T05:43:05.433Z,21.1
2019-04-03T05:43:52.204Z,21.1
2019-04-03T05:44:42.360Z,21.1
2019-04-03T05:45:35.967Z,21.1
2019-04-03T05:46:26.816Z,21.1
2019-04-03T05:47:14.987Z,21.1
2019-04-03T05:48:02.825Z,21.1
2019-04-03T05:48:55.698Z,21
2019-04-03T05:49:42.681Z,21
2019-04-03T05:50:38.106Z,21.1
2019-04-03T05:51:22.359Z,21
2019-04-03T05:52:12.286Z,21
2019-04-03T05:53:06.554Z,21
2019-04-03T05:53:55.728Z,21
2019-04-03T05:54:49.957Z,21
2019-04-03T05:55:33.404Z,21
2019-04-03T05:56:22.789Z,21
2019-04-03T05:57:16.204Z,21
2019-04-03T05:59:04.753Z,21
2019-04-03T05:59:16.521Z,21
2019-04-03T06:00:12.994Z,21
2019-04-03T06:01:16.313Z,21
2019-04-03T06:01:53.008Z,21
2019-04-03T06:02:36.418Z,21
2019-04-03T06:05:23.982Z,21
2019-04-03T06:06:08.202Z,21
2019-04-03T06:06:57.404Z,21
2019-04-03T06:07:51.076Z,21
2019-04-03T06:08:43.152Z,20.9
2019-04-03T06:09:30.953Z,20.9
2019-04-03T06:10:17.891Z,20.9
2019-04-03T06:11:16.010Z,21
2019-04-03T06:11:59.115Z,20.9
2019-04-03T06:12:52.859Z,20.9
2019-04-03T06:13:39.058Z,20.9
2019-04-03T06:14:30.560Z,20.9
2019-04-03T06:15:23.153Z,20.9
2019-04-03T06:16:09.741Z,20.9
2019-04-03T06:17:03.027Z,20.9
2019-04-03T06:17:56.807Z,20.9
2019-04-03T06:18:39.754Z,20.9
2019-04-03T06:19:28.852Z,21
2019-04-03T06:20:19.487Z,20.9
2019-04-03T06:21:09.920Z,21
2019-04-03T06:21:58.722Z,21
2019-04-03T06:22:53.746Z,21
2019-04-03T06:23:39.626Z,21
2019-04-03T06:24:32.962Z,21
2019-04-03T06:25:22.410Z,21.1
2019-04-03T06:26:10.545Z,21.1
2019-04-03T06:26:59.196Z,21.1
2019-04-03T06:31:12.467Z,21.2
2019-04-03T06:32:50.579Z,21.2
2019-04-03T06:34:30.351Z,21.2
2019-04-03T06:35:21.696Z,21.2
2019-04-03T06:36:10.731Z,21.2
2019-04-03T06:37:01.111Z,21.2
2019-04-03T06:37:54.087Z,21.2
2019-04-03T06:39:39.356Z,21.2
2019-04-03T06:40:21.223Z,21.2
2019-04-03T06:41:14.396Z,21.2
2019-04-03T06:42:52.404Z,21.2
2019-04-03T06:43:41.097Z,21.2
2019-04-03T06:44:30.916Z,21.2
2019-04-03T06:46:11.829Z,21.2
2019-04-03T06:47:06.746Z,21.2
2019-04-03T06:48:43.893Z,21.2
2019-04-03T06:50:25.189Z,21.2
2019-04-03T06:55:25.546Z,21.2
2019-04-03T07:06:07.962Z,21.1
2019-04-03T07:13:38.694Z,21.2
2019-04-03T07:14:32.295Z,21.2
2019-04-03T07:15:19.498Z,21.2
2019-04-03T07:16:09.273Z,21.2
2019-04-03T07:17:07.047Z,21.2
2019-04-03T07:17:48.913Z,21.2
2019-04-03T07:18:42.489Z,21.3
2019-04-03T07:19:29.390Z,21.3
2019-04-03T07:20:27.477Z,21.3
2019-04-03T07:21:08.801Z,21.3
2019-04-03T07:22:02.889Z,21.3
2019-04-03T07:22:50.071Z,21.3
2019-04-03T07:23:39.598Z,21.3
2019-04-03T07:24:29.775Z,21.3
2019-04-03T07:25:20.241Z,21.3
2019-04-03T07:26:12.454Z,21.3
2019-04-03T07:26:59.779Z,21.3
2019-04-03T07:27:50.211Z,21.3
2019-04-03T07:28:44.115Z,21.4
2019-04-03T07:29:33.311Z,21.3
2019-04-03T07:30:27.099Z,21.3
2019-04-03T07:31:10.089Z,21.3
2019-04-03T07:32:02.944Z,21.3
2019-04-03T07:32:50.261Z,21.3
2019-04-03T07:33:41.131Z,21.3
2019-04-03T07:34:33.302Z,21.3
2019-04-03T07:35:20.216Z,21.3
2019-04-03T07:36:14.422Z,21.3
2019-04-03T07:36:59.121Z,21.3
2019-04-03T07:37:54.696Z,21.3
2019-04-03T07:38:40.396Z,21.3
2019-04-03T07:39:29.951Z,21.3
2019-04-03T07:40:23.910Z,21.3
2019-04-03T07:41:10.926Z,21.3
2019-04-03T07:42:02.259Z,21.3
2019-04-03T07:42:50.594Z,21.3
2019-04-03T07:43:41.265Z,21.3
2019-04-03T07:44:35.451Z,21.3
2019-04-03T07:45:20.420Z,21.3
2019-04-03T07:46:11.270Z,21.3
2019-04-03T07:47:06.973Z,21.3
2019-04-03T07:47:50.308Z,21.3
2019-04-03T07:48:45.158Z,21.3
2019-04-03T07:49:30.533Z,21.2
2019-04-03T07:50:22.237Z,21.2
2019-04-03T07:51:14.338Z,21.2
2019-04-03T07:52:01.457Z,21.2
2019-04-03T07:52:55.688Z,21.2
2019-04-03T07:53:41.170Z,21.2
2019-04-03T07:54:34.070Z,21.2
2019-04-03T07:55:22.093Z,21.2
2019-04-03T07:56:11.525Z,21.2
2019-04-03T07:57:04.453Z,21.2
2019-04-03T07:57:51.800Z,21.2
2019-04-03T07:58:42.223Z,21.2
2019-04-03T08:00:22.700Z,21.2
2019-04-03T08:10:59.664Z,21.2
2019-04-03T08:11:47.101Z,21.2
2019-04-03T08:12:42.839Z,21.2
2019-04-03T08:13:28.260Z,21.2
2019-04-03T08:14:21.739Z,21.3
2019-04-03T08:15:08.113Z,21.3
2019-04-03T08:15:58.669Z,21.3
2019-04-03T08:16:57.764Z,21.2
2019-04-03T08:17:38.081Z,21.3
2019-04-03T08:18:30.043Z,21.3
2019-04-03T08:19:18.929Z,21.3
2019-04-03T08:20:09.307Z,21.2
2019-04-03T08:21:06.461Z,21.3
2019-04-03T08:21:49.232Z,21.2
2019-04-03T08:22:42.679Z,21.2
2019-04-03T08:23:28.706Z,21.2
2019-04-03T08:24:19.338Z,21.2
2019-04-03T08:25:14.162Z,21.3
2019-04-03T08:26:02.311Z,21.2
2019-04-03T08:26:53.520Z,21.2
2019-04-03T08:27:39.247Z,21.2
2019-04-03T08:28:36.809Z,21.2
2019-04-03T08:29:19.876Z,21.2
2019-04-03T08:30:14.103Z,21.2
2019-04-03T08:30:59.450Z,21.2
2019-04-03T08:31:55.850Z,21.2
2019-04-03T08:32:40.743Z,21.2
2019-04-03T08:33:37.666Z,21.2
2019-04-03T08:36:01.106Z,21.2
2019-04-03T08:36:50.323Z,21.2
2019-04-03T08:37:45.649Z,21.2
2019-04-03T08:39:24.872Z,21.2
2019-04-03T08:40:10.082Z,21.2
2019-04-03T08:41:06.381Z,21.2
2019-04-03T08:51:07.638Z,21.1
2019-04-03T08:51:51.244Z,21.1
2019-04-03T08:52:45.914Z,21.1
2019-04-03T08:53:31.379Z,21.1
2019-04-03T08:54:21.677Z,21.1
2019-04-03T08:55:15.900Z,21.1
2019-04-03T08:56:03.716Z,21.1
2019-04-03T08:56:54.983Z,21.1
2019-04-03T08:57:42.053Z,21.1
2019-04-03T08:58:34.760Z,21
2019-04-03T08:59:22.041Z,21.1
2019-04-03T09:00:12.406Z,21
2019-04-03T09:01:05.442Z,21.1
2019-04-03T09:01:55.673Z,21.1
2019-04-03T09:02:46.505Z,21.1
2019-04-03T09:03:30.891Z,21.1
2019-04-03T09:04:25.370Z,21.1
2019-04-03T09:07:42.961Z,21.2
2019-04-03T09:08:34.234Z,21.2
2019-04-03T09:09:20.640Z,21.2
2019-04-03T09:10:12.635Z,21.2
2019-04-03T09:11:06.087Z,21.2
2019-04-03T09:11:51.923Z,21.2
2019-04-03T09:12:45.420Z,21.2
2019-04-03T09:13:32.333Z,21.2
2019-04-03T09:14:29.247Z,21.2
2019-04-03T09:15:12.872Z,21.2
2019-04-03T09:16:53.424Z,21.2
2019-04-03T09:17:43.600Z,21.2
2019-04-03T09:18:39.777Z,21.2
2019-04-03T09:19:24.379Z,21.2
2019-04-03T09:20:16.860Z,21.2
2019-04-03T09:21:03.088Z,21.2
2019-04-03T09:21:58.068Z,21.2
2019-04-03T09:22:42.657Z,21.2
2019-04-03T09:23:32.919Z,21.2
2019-04-03T09:24:23.327Z,21.2
2019-04-03T09:32:01.514Z,21.1
2019-04-03T09:32:44.765Z,21.1
2019-04-03T09:33:37.052Z,21.1
2019-04-03T09:34:34.451Z,21.1
2019-04-03T09:35:14.569Z,21.1
2019-04-03T09:36:11.817Z,21.1
2019-04-03T09:36:54.193Z,21.1
2019-04-03T09:37:49.475Z,21.1
2019-04-03T09:38:42.668Z,21.1
2019-04-03T09:39:24.607Z,21.1
2019-04-03T09:40:18.929Z,21.1
2019-04-03T09:41:04.547Z,21.1
2019-04-03T09:41:56.378Z,21.1
2019-04-03T09:42:43.204Z,21.1
2019-04-03T09:43:35.374Z,21.1
2019-04-03T09:44:28.066Z,21.1
2019-04-03T09:45:13.886Z,21.1
2019-04-03T09:46:07.706Z,21
2019-04-03T09:46:54.581Z,21
2019-04-03T09:47:44.521Z,21
2019-04-03T09:48:37.583Z,21
2019-04-03T09:49:25.988Z,21
2019-04-03T09:50:21.905Z,21
2019-04-03T09:51:05.256Z,21
2019-04-03T09:52:00.424Z,21
2019-04-03T09:53:04.586Z,21
2019-04-03T09:53:35.439Z,21
2019-04-03T09:54:30.148Z,21
2019-04-03T09:55:15.446Z,21
2019-04-03T09:56:10.288Z,21.1
2019-04-03T09:57:12.524Z,21.1
2019-04-03T09:57:46.624Z,21.1
2019-04-03T09:58:39.689Z,21.1
2019-04-03T09:59:26.459Z,21.1
2019-04-03T10:01:56.458Z,21.2
2019-04-03T10:02:46.436Z,21.2
2019-04-03T10:03:39.319Z,21.2
2019-04-03T10:06:36.305Z,21.2
2019-04-03T10:07:11.035Z,21.2
2019-04-03T10:07:59.357Z,21.2
2019-04-03T10:10:31.480Z,21.2
2019-04-03T10:11:41.443Z,21.2
2019-04-03T10:12:09.184Z,21.2
2019-04-03T10:13:01.460Z,21.2
2019-04-03T10:13:49.903Z,21.2
2019-04-03T10:14:39.254Z,21.2
2019-04-03T10:15:32.960Z,21.2
2019-04-03T10:19:39.190Z,21.2
2019-04-03T10:26:19.773Z,21.1
2019-04-03T10:27:59.969Z,21.1
2019-04-03T10:29:57.208Z,21.1
2019-04-03T10:30:31.205Z,21.1
2019-04-03T10:31:23.241Z,21.1
2019-04-03T10:32:10.654Z,21.1
2019-04-03T10:33:04.806Z,21
2019-04-03T10:33:50.199Z,21.1
2019-04-03T10:34:43.470Z,21
2019-04-03T10:35:48.289Z,21
2019-04-03T10:36:34.696Z,21
2019-04-03T10:37:12.116Z,21
2019-04-03T10:38:01.344Z,21
2019-04-03T10:39:05.835Z,21
2019-04-03T10:39:47.801Z,21
2019-04-03T10:40:32.523Z,21
2019-04-03T10:41:21.018Z,21
2019-04-03T10:42:11.813Z,21
2019-04-03T10:43:10.529Z,21
2019-04-03T10:43:51.569Z,21
2019-04-03T10:44:41.065Z,21
2019-04-03T10:45:31.061Z,20.9
2019-04-03T10:46:25.288Z,20.9
2019-04-03T10:47:11.267Z,20.9
2019-04-03T10:48:03.851Z,20.9
2019-04-03T10:48:50.970Z,21
2019-04-03T10:49:41.945Z,20.9
2019-04-03T10:50:32.142Z,21
2019-04-03T10:51:21.959Z,21
2019-04-03T10:52:15.711Z,21
2019-04-03T10:53:01.344Z,21.1
2019-04-03T10:53:56.678Z,21.1
2019-04-03T10:56:21.670Z,21.2
2019-04-03T10:57:12.209Z,21.2
2019-04-03T10:58:11.678Z,21.2
2019-04-03T10:59:42.535Z,21.2
2019-04-03T11:00:35.934Z,21.2
2019-04-03T11:03:01.894Z,21.2
2019-04-03T11:03:51.374Z,21.2
2019-04-03T11:05:33.122Z,21.2
2019-04-03T11:18:04.322Z,21.1
2019-04-03T11:20:38.861Z,21.1
2019-04-03T11:21:23.694Z,21.1
2019-04-03T11:24:44.060Z,21.1
2019-04-03T11:24:57.582Z,21.1
2019-04-03T11:25:55.768Z,21.1
2019-04-03T11:26:38.325Z,21.1
2019-04-03T11:27:52.845Z,21
2019-04-03T11:28:18.778Z,21.1
2019-04-03T11:29:12.767Z,21
2019-04-03T11:29:59.224Z,21
2019-04-03T11:30:49.150Z,21
2019-04-03T11:31:50.060Z,21
2019-04-03T11:32:30.409Z,21
2019-04-03T11:33:21.475Z,21
2019-04-03T11:34:08.203Z,21
2019-04-03T11:35:01.040Z,21
2019-04-03T11:35:48.331Z,21
2019-04-03T11:36:38.212Z,21
2019-04-03T11:37:28.357Z,21
2019-04-03T11:38:37.171Z,21
2019-04-03T11:39:24.199Z,21
2019-04-03T11:40:28.948Z,21
2019-04-03T11:41:24.857Z,20.9
2019-04-03T11:41:39.071Z,20.9
2019-04-03T11:42:37.466Z,20.9
2019-04-03T11:43:18.081Z,20.9
2019-04-03T11:44:23.292Z,20.9
2019-04-03T11:44:59.461Z,20.9
2019-04-03T11:46:39.164Z,21
2019-04-03T11:47:28.930Z,21
2019-04-03T11:48:24.343Z,21.1
2019-04-03T11:49:09.913Z,21.1
2019-04-03T11:51:57.173Z,21.2
2019-04-03T11:52:29.239Z,21.2
2019-04-03T11:53:19.204Z,21.2
2019-04-03T11:54:13.352Z,21.2
2019-04-03T11:55:01.333Z,21.2
2019-04-03T11:55:49.877Z,21.2
2019-04-03T11:56:39.126Z,21.2
2019-04-03T11:57:34.081Z,21.2
2019-04-03T11:58:24.912Z,21.2
2019-04-03T11:59:09.568Z,21.2
2019-04-03T12:00:04.919Z,21.2
2019-04-03T12:00:51.236Z,21.2
2019-04-03T12:01:55.343Z,21.2
2019-04-03T12:02:29.794Z,21.2
2019-04-03T12:03:19.917Z,21.2
2019-04-03T12:04:15.269Z,21.2
2019-04-03T12:08:02.751Z,21.2
2019-04-03T12:12:14.439Z,21.2
2019-04-03T12:22:09.907Z,21.1
2019-04-03T12:23:02.715Z,21.1
2019-04-03T12:23:49.096Z,21.1
2019-04-03T12:24:39.540Z,21.1
2019-04-03T12:25:32.436Z,21.1
2019-04-03T12:26:24.878Z,21.1
2019-04-03T12:27:11.968Z,21.1
2019-04-03T12:27:59.350Z,21.1
2019-04-03T12:28:54.886Z,21.1
2019-04-03T12:29:40.177Z,21
2019-04-03T12:30:34.628Z,21
2019-04-03T12:31:20.465Z,21
2019-04-03T12:32:16.700Z,21
2019-04-03T12:33:00.500Z,21
2019-04-03T12:34:13.407Z,21
2019-04-03T12:34:44.360Z,21
2019-04-03T12:35:31.075Z,21
2019-04-03T12:36:22.777Z,20.9
2019-04-03T12:37:10.974Z,20.9
2019-04-03T12:38:01.455Z,20.9
2019-04-03T12:38:51.049Z,20.9
2019-04-03T12:39:41.377Z,20.9
2019-04-03T12:40:35.179Z,20.9
2019-04-03T12:41:21.057Z,20.9
2019-04-03T12:42:17.757Z,21
2019-04-03T12:43:01.181Z,21
2019-04-03T12:43:55.219Z,21
2019-04-03T12:44:40.361Z,21.1
2019-04-03T12:47:20.649Z,21.2
2019-04-03T12:48:01.529Z,21.2
2019-04-03T12:48:55.324Z,21.2
2019-04-03T12:49:40.363Z,21.2
2019-04-03T12:50:35.711Z,21.2
2019-04-03T12:51:25.899Z,21.3
2019-04-03T12:52:13.195Z,21.2
2019-04-03T12:53:01.736Z,21.2
2019-04-03T12:53:55.078Z,21.2
2019-04-03T12:54:42.321Z,21.2
2019-04-03T12:55:34.056Z,21.2
2019-04-03T12:56:24.121Z,21.2
2019-04-03T12:57:12.571Z,21.2
2019-04-03T12:58:06.850Z,21.2
2019-04-03T12:58:51.375Z,21.2
2019-04-03T12:59:50.002Z,21.2
2019-04-03T13:00:33.213Z,21.2
2019-04-03T13:03:52.892Z,21.2
2019-04-03T13:04:43.088Z,21.2
2019-04-03T13:16:28.443Z,21.1
2019-04-03T13:17:19.022Z,21.1
2019-04-03T13:18:03.364Z,21.1
2019-04-03T13:18:53.625Z,21.1
2019-04-03T13:19:42.337Z,21.1
2019-04-03T13:20:38.710Z,21.1
2019-04-03T13:21:23.826Z,21.1
2019-04-03T13:22:22.204Z,21.1
2019-04-03T13:23:04.492Z,21.1
2019-04-03T13:23:55.758Z,21.1
2019-04-03T13:24:44.346Z,21
2019-04-03T13:25:33.109Z,21
2019-04-03T13:26:28.164Z,21
2019-04-03T13:27:14.478Z,21
2019-04-03T13:28:08.754Z,21
2019-04-03T13:28:54.463Z,21
2019-04-03T13:29:48.550Z,21
2019-04-03T13:30:34.691Z,21
2019-04-03T13:31:24.558Z,21
2019-04-03T13:32:18.689Z,21
2019-04-03T13:33:18.422Z,21
2019-04-03T13:33:54.386Z,21
2019-04-03T13:34:49.308Z,21
2019-04-03T13:35:35.401Z,21
2019-04-03T13:36:30.947Z,20.9
2019-04-03T13:37:14.374Z,21
2019-04-03T13:38:04.768Z,20.9
2019-04-03T13:39:03.191Z,20.9
2019-04-03T13:39:45.639Z,21
2019-04-03T13:40:39.751Z,21
2019-04-03T13:41:25.126Z,21.1
2019-04-03T13:42:19.448Z,21.1
2019-04-03T13:44:45.653Z,21.2
2019-04-03T13:45:40.056Z,21.2
2019-04-03T13:46:25.904Z,21.2
2019-04-03T13:47:17.372Z,21.2
2019-04-03T13:48:07.031Z,21.2